Time;durP1;ratioP1;P1;durP2;ratioP2;P2;SDS_P1;SDS_P2;PMS_P1;PMS_P2;Temp;Humidity;BMP_temperature;BMP_pressure;BME280_temperature;BME280_humidity;BME280_pressure;Samples;Min_cycle;Max_cycle;Signal;HPM_P1;HPM_P2
2021/03/24 00:01:39;;;;;;;30.90;19.42;;;;;;;;;;5114853;28;20216;-54
2021/03/24 00:04:06;;;;;;;37.85;23.52;;;;;;;;;;5117012;28;20193;-54
2021/03/24 00:06:34;;;;;;;35.92;22.98;;;;;;;;;;5116473;28;20197;-48
2021/03/24 00:09:05;;;;;;;31.15;20.50;;;;;;;;;;5116568;28;20215;-48
2021/03/24 00:11:32;;;;;;;35.70;21.33;;;;;;;;;;5116883;28;20173;-53
2021/03/24 00:14:19;;;;;;;32.78;21.38;;;;;;;;;;5116329;28;20225;-56
2021/03/24 00:16:47;;;;;;;33.67;21.10;;;;;;;;;;5116550;28;20239;-50
2021/03/24 00:19:14;;;;;;;29.10;19.55;;;;;;;;;;5116201;28;20212;-51
2021/03/24 00:21:41;;;;;;;33.78;20.80;;;;;;;;;;5116189;28;20189;-52
2021/03/24 00:24:07;;;;;;;35.53;19.75;;;;;;;;;;5116018;28;20221;-50
2021/03/24 00:26:41;;;;;;;32.42;20.45;;;;;;;;;;5116543;28;20717;-51
2021/03/24 00:29:08;;;;;;;30.35;20.58;;;;;;;;;;5116186;28;20224;-57
2021/03/24 00:31:35;;;;;;;31.35;19.98;;;;;;;;;;5116611;28;20212;-52
2021/03/24 00:34:36;;;;;;;41.40;21.92;;;;;;;;;;5116069;28;20223;-53
2021/03/24 00:37:04;;;;;;;29.23;19.05;;;;;;;;;;5110255;28;20232;-58
2021/03/24 00:39:32;;;;;;;26.05;18.52;;;;;;;;;;5116138;28;20326;-49
2021/03/24 00:42:09;;;;;;;28.10;18.52;;;;;;;;;;5116219;28;20330;-55
2021/03/24 00:44:36;;;;;;;29.67;19.48;;;;;;;;;;5114501;28;20243;-51
2021/03/24 00:47:03;;;;;;;29.25;18.73;;;;;;;;;;5116898;28;20189;-56
2021/03/24 00:49:30;;;;;;;30.13;19.30;;;;;;;;;;5116212;28;20202;-54
2021/03/24 00:51:57;;;;;;;31.58;20.23;;;;;;;;;;5115949;28;20216;-53
2021/03/24 00:54:36;;;;;;;32.72;21.33;;;;;;;;;;5116512;28;20243;-52
2021/03/24 00:57:03;;;;;;;39.00;21.60;;;;;;;;;;5116543;28;20201;-55
2021/03/24 00:59:30;;;;;;;34.20;20.73;;;;;;;;;;5096381;28;20197;-56
2021/03/24 01:02:19;;;;;;;52.45;33.35;;;;;;;;;;5100993;28;20200;-52
2021/03/24 01:04:46;;;;;;;37.05;22.33;;;;;;;;;;5114533;28;20253;-48
2021/03/24 01:07:13;;;;;;;38.33;24.38;;;;;;;;;;5116108;28;20203;-51
2021/03/24 01:09:42;;;;;;;33.35;21.27;;;;;;;;;;5116224;28;20190;-53
2021/03/24 01:12:09;;;;;;;34.60;21.38;;;;;;;;;;5115803;28;20217;-50
2021/03/24 01:14:35;;;;;;;38.15;21.98;;;;;;;;;;5115624;27;20180;-51
2021/03/24 01:17:21;;;;;;;31.95;20.02;;;;;;;;;;5116144;28;20204;-49
2021/03/24 01:19:48;;;;;;;31.25;20.92;;;;;;;;;;5116209;28;20227;-48
2021/03/24 01:22:15;;;;;;;30.67;20.80;;;;;;;;;;5116318;27;20212;-55
2021/03/24 01:24:58;;;;;;;35.13;20.63;;;;;;;;;;5116684;27;20189;-52
2021/03/24 01:27:25;;;;;;;30.40;20.13;;;;;;;;;;5116240;28;20208;-54
2021/03/24 01:29:52;;;;;;;33.55;22.02;;;;;;;;;;5116437;27;20190;-52
2021/03/24 01:32:41;;;;;;;33.08;19.33;;;;;;;;;;5116213;28;20228;-48
2021/03/24 01:35:08;;;;;;;37.70;20.70;;;;;;;;;;5116174;27;20196;-48
2021/03/24 01:37:37;;;;;;;37.78;21.27;;;;;;;;;;5116514;28;20228;-50
2021/03/24 01:40:11;;;;;;;32.72;21.88;;;;;;;;;;5116034;28;20324;-48
2021/03/24 01:42:38;;;;;;;33.90;20.70;;;;;;;;;;5113775;28;20233;-47
2021/03/24 01:45:08;;;;;;;39.28;21.70;;;;;;;;;;5119840;28;20262;-52
2021/03/24 01:47:37;;;;;;;30.98;19.90;;;;;;;;;;5126939;28;20212;-50
2021/03/24 01:50:07;;;;;;;32.22;20.20;;;;;;;;;;5132569;28;20238;-51
2021/03/24 01:52:33;;;;;;;35.20;20.98;;;;;;;;;;5140117;28;20213;-49
2021/03/24 01:55:03;;;;;;;32.75;21.70;;;;;;;;;;5140015;27;20212;-52
2021/03/24 01:57:30;;;;;;;62.65;34.92;;;;;;;;;;5140494;28;20207;-55
2021/03/24 01:59:57;;;;;;;50.13;31.55;;;;;;;;;;5140911;28;20197;-50
2021/03/24 02:02:25;;;;;;;41.97;25.70;;;;;;;;;;5129833;28;20209;-49
2021/03/24 02:04:52;;;;;;;33.95;22.20;;;;;;;;;;5120117;28;20196;-48
2021/03/24 02:08:05;;;;;;;30.63;20.70;;;;;;;;;;5119818;27;20198;-49
2021/03/24 02:10:35;;;;;;;32.55;21.60;;;;;;;;;;5119603;28;20211;-51
2021/03/24 02:13:06;;;;;;;38.42;20.52;;;;;;;;;;5119052;28;20232;-54
2021/03/24 02:15:39;;;;;;;35.90;21.95;;;;;;;;;;5119538;28;20205;-46
2021/03/24 02:18:06;;;;;;;37.90;21.35;;;;;;;;;;5119399;28;20213;-53
2021/03/24 02:20:35;;;;;;;33.03;20.50;;;;;;;;;;5119413;27;20193;-47
2021/03/24 02:23:19;;;;;;;30.98;20.77;;;;;;;;;;5118794;28;20190;-49
2021/03/24 02:25:48;;;;;;;32.45;19.65;;;;;;;;;;5119374;28;20212;-48
2021/03/24 02:28:16;;;;;;;33.10;22.23;;;;;;;;;;5118762;28;20185;-50
2021/03/24 02:30:59;;;;;;;36.55;21.85;;;;;;;;;;5118985;28;20205;-45
2021/03/24 02:33:28;;;;;;;35.90;22.17;;;;;;;;;;5117406;28;20263;-46
2021/03/24 02:35:59;;;;;;;36.53;21.90;;;;;;;;;;5118749;28;20212;-51
2021/03/24 02:38:29;;;;;;;32.53;20.42;;;;;;;;;;5119013;28;20205;-52
2021/03/24 02:40:57;;;;;;;33.70;22.23;;;;;;;;;;5118898;28;20181;-49
2021/03/24 02:43:26;;;;;;;32.83;21.98;;;;;;;;;;5119062;28;20266;-49
2021/03/24 02:45:54;;;;;;;29.40;21.20;;;;;;;;;;5118763;28;20240;-45
2021/03/24 02:48:23;;;;;;;31.80;21.98;;;;;;;;;;5118470;28;20228;-49
2021/03/24 02:50:53;;;;;;;33.08;21.05;;;;;;;;;;5118085;28;20268;-54
2021/03/24 02:53:20;;;;;;;32.20;21.52;;;;;;;;;;5118189;28;20216;-48
2021/03/24 02:55:47;;;;;;;35.72;22.30;;;;;;;;;;5117753;28;20236;-53
2021/03/24 02:58:14;;;;;;;34.28;21.08;;;;;;;;;;5117891;28;20205;-52
2021/03/24 03:00:42;;;;;;;39.03;20.30;;;;;;;;;;5117609;28;20208;-47
2021/03/24 03:03:11;;;;;;;34.60;21.23;;;;;;;;;;5118424;28;20207;-52
2021/03/24 03:05:38;;;;;;;29.45;19.65;;;;;;;;;;5118678;28;20185;-50
2021/03/24 03:08:07;;;;;;;33.22;20.17;;;;;;;;;;5118905;28;20220;-52
2021/03/24 03:10:36;;;;;;;31.70;21.13;;;;;;;;;;5118472;28;20205;-52
2021/03/24 03:13:06;;;;;;;36.47;20.08;;;;;;;;;;5118036;28;20197;-51
2021/03/24 03:15:54;;;;;;;32.72;20.08;;;;;;;;;;5118032;28;20208;-52
2021/03/24 03:18:24;;;;;;;36.75;21.75;;;;;;;;;;5118461;28;20201;-53
2021/03/24 03:20:53;;;;;;;33.33;20.10;;;;;;;;;;5117708;28;20216;-47
2021/03/24 03:23:23;;;;;;;34.97;20.77;;;;;;;;;;5118126;28;20209;-51
2021/03/24 03:25:56;;;;;;;29.02;19.65;;;;;;;;;;5117471;28;20273;-50
2021/03/24 03:28:22;;;;;;;41.58;21.67;;;;;;;;;;5117989;28;20205;-55
2021/03/24 03:30:59;;;;;;;34.08;21.48;;;;;;;;;;5118119;28;20204;-52
2021/03/24 03:33:28;;;;;;;27.67;19.25;;;;;;;;;;5117478;28;20272;-54
2021/03/24 03:35:55;;;;;;;27.98;19.33;;;;;;;;;;5117692;28;20201;-49
2021/03/24 03:38:30;;;;;;;31.98;19.95;;;;;;;;;;5118262;28;20208;-51
2021/03/24 03:40:58;;;;;;;33.88;20.75;;;;;;;;;;5116316;28;20224;-56
2021/03/24 03:43:28;;;;;;;32.75;19.55;;;;;;;;;;5118212;28;20209;-50
2021/03/24 03:45:56;;;;;;;40.25;21.63;;;;;;;;;;5117700;28;20205;-50
2021/03/24 03:48:23;;;;;;;32.88;22.20;;;;;;;;;;5117707;28;20205;-58
2021/03/24 03:50:53;;;;;;;32.35;21.40;;;;;;;;;;5117943;28;20193;-46
2021/03/24 03:53:35;;;;;;;39.33;22.00;;;;;;;;;;5117577;28;20233;-49
2021/03/24 03:56:03;;;;;;;32.47;20.10;;;;;;;;;;5117445;28;20189;-54
2021/03/24 03:58:32;;;;;;;29.95;19.92;;;;;;;;;;5117793;28;20201;-52
2021/03/24 04:01:02;;;;;;;38.33;23.45;;;;;;;;;;5117332;28;20189;-52
2021/03/24 04:03:32;;;;;;;30.30;21.33;;;;;;;;;;5117417;28;20189;-48
2021/03/24 04:06:05;;;;;;;29.23;20.98;;;;;;;;;;5116946;28;20174;-47
2021/03/24 04:08:34;;;;;;;47.63;23.05;;;;;;;;;;5117412;28;20177;-52
2021/03/24 04:11:02;;;;;;;37.88;22.60;;;;;;;;;;5117225;28;20204;-51
2021/03/24 04:13:38;;;;;;;37.55;21.25;;;;;;;;;;5117139;28;20263;-55
2021/03/24 04:16:06;;;;;;;31.73;20.88;;;;;;;;;;5117854;28;20205;-52
2021/03/24 04:18:35;;;;;;;35.03;21.98;;;;;;;;;;5117365;28;20232;-49
2021/03/24 04:21:04;;;;;;;35.35;20.60;;;;;;;;;;5116677;28;20186;-49
2021/03/24 04:23:38;;;;;;;33.00;21.50;;;;;;;;;;5116974;28;20210;-50
2021/03/24 04:26:08;;;;;;;39.70;21.20;;;;;;;;;;5117192;28;20200;-52
2021/03/24 04:28:44;;;;;;;31.08;22.20;;;;;;;;;;5116740;28;20205;-52
2021/03/24 04:31:13;;;;;;;34.72;21.17;;;;;;;;;;5116806;28;20185;-48
2021/03/24 04:33:42;;;;;;;31.30;21.23;;;;;;;;;;5116532;28;20221;-51
2021/03/24 04:36:14;;;;;;;42.00;24.45;;;;;;;;;;5116655;28;20185;-48
2021/03/24 04:38:46;;;;;;;34.58;21.30;;;;;;;;;;5116608;28;20231;-50
2021/03/24 04:41:17;;;;;;;35.60;22.55;;;;;;;;;;5116740;28;20233;-53
2021/03/24 04:43:56;;;;;;;31.80;20.67;;;;;;;;;;5117036;28;20219;-52
2021/03/24 04:46:28;;;;;;;32.10;20.00;;;;;;;;;;5116541;28;20201;-51
2021/03/24 04:48:56;;;;;;;36.70;21.15;;;;;;;;;;5116172;28;20197;-52
2021/03/24 04:54:30;;;;;;;32.53;21.30;;;;;;;;;;5114997;28;20270;-50
2021/03/24 04:56:59;;;;;;;40.95;22.95;;;;;;;;;;5116317;28;20212;-55
2021/03/24 04:59:51;;;;;;;36.53;21.15;;;;;;;;;;5116736;28;20204;-51
2021/03/24 05:02:19;;;;;;;38.05;21.02;;;;;;;;;;5116457;28;20201;-53
2021/03/24 05:04:49;;;;;;;35.90;21.90;;;;;;;;;;5116683;28;20177;-53
2021/03/24 05:07:48;;;;;;;35.80;22.42;;;;;;;;;;5116194;28;20189;-52
2021/03/24 05:10:19;;;;;;;29.90;19.15;;;;;;;;;;5116360;28;20268;-48
2021/03/24 05:12:48;;;;;;;41.47;22.23;;;;;;;;;;5116343;28;20217;-53
2021/03/24 05:15:19;;;;;;;32.70;20.20;;;;;;;;;;5116213;28;20220;-55
2021/03/24 05:17:46;;;;;;;32.17;21.50;;;;;;;;;;5116375;28;20227;-51
2021/03/24 05:20:18;;;;;;;37.30;21.67;;;;;;;;;;5116339;28;20185;-56
2021/03/24 05:22:48;;;;;;;35.42;23.00;;;;;;;;;;5116627;28;20177;-50
2021/03/24 05:25:21;;;;;;;37.22;19.95;;;;;;;;;;5102487;28;20217;-54
2021/03/24 05:27:49;;;;;;;38.80;23.08;;;;;;;;;;5119687;28;20201;-48
2021/03/24 05:30:18;;;;;;;37.20;21.50;;;;;;;;;;5120010;28;20197;-53
2021/03/24 05:32:48;;;;;;;34.88;20.75;;;;;;;;;;5116341;28;20221;-56
2021/03/24 05:35:44;;;;;;;35.05;19.95;;;;;;;;;;5120962;28;20185;-55
2021/03/24 05:41:32;;;;;;;40.17;22.45;;;;;;;;;;5124286;28;20259;-51
2021/03/24 05:44:14;;;;;;;39.72;22.65;;;;;;;;;;5128333;28;20212;-52
2021/03/24 05:47:03;;;;;;;30.90;20.23;;;;;;;;;;5100324;28;20190;-51
2021/03/24 05:49:34;;;;;;;34.42;20.90;;;;;;;;;;5115574;28;20256;-52
2021/03/24 05:52:15;;;;;;;34.28;20.63;;;;;;;;;;5120205;28;20193;-50
2021/03/24 05:55:07;;;;;;;37.65;20.65;;;;;;;;;;5119306;28;20194;-56
2021/03/24 05:57:50;;;;;;;38.25;20.63;;;;;;;;;;5119548;28;20208;-53
2021/03/24 06:00:27;;;;;;;40.55;20.90;;;;;;;;;;5126365;28;20223;-53
2021/03/24 06:03:03;;;;;;;38.33;21.00;;;;;;;;;;5132017;27;20201;-52
2021/03/24 06:05:33;;;;;;;27.42;19.67;;;;;;;;;;5119906;28;20219;-51
2021/03/24 06:08:37;;;;;;;32.15;19.10;;;;;;;;;;5119226;28;20193;-48
2021/03/24 06:11:34;;;;;;;30.73;18.98;;;;;;;;;;5114371;28;20282;-52
2021/03/24 06:14:33;;;;;;;33.58;21.88;;;;;;;;;;5073585;28;20220;-52
2021/03/24 06:17:15;;;;;;;32.65;18.63;;;;;;;;;;5114684;28;20224;-54
2021/03/24 06:19:51;;;;;;;33.67;20.08;;;;;;;;;;5110624;28;20215;-51
2021/03/24 06:22:26;;;;;;;32.00;19.80;;;;;;;;;;5113249;28;20426;-54
2021/03/24 06:25:20;;;;;;;29.65;19.45;;;;;;;;;;5112688;28;20201;-53
2021/03/24 06:28:24;;;;;;;33.72;20.25;;;;;;;;;;5118846;28;20202;-52
2021/03/24 06:31:06;;;;;;;32.47;20.10;;;;;;;;;;5124930;27;20212;-56
2021/03/24 06:33:53;;;;;;;30.33;19.98;;;;;;;;;;5118713;28;20239;-52
2021/03/24 06:36:43;;;;;;;32.05;20.80;;;;;;;;;;5114052;28;20211;-50
2021/03/24 06:39:21;;;;;;;33.33;18.98;;;;;;;;;;5118836;28;20276;-53
2021/03/24 06:45:08;;;;;;;31.45;20.52;;;;;;;;;;5076347;28;20249;-53
2021/03/24 06:47:43;;;;;;;29.02;19.63;;;;;;;;;;5108938;28;20271;-56
2021/03/24 06:50:53;;;;;;;30.17;19.00;;;;;;;;;;5133219;28;20193;-50
2021/03/24 06:53:46;;;;;;;30.77;20.00;;;;;;;;;;5080122;28;20233;-50
2021/03/24 06:56:24;;;;;;;31.05;18.70;;;;;;;;;;5118451;28;20186;-55
2021/03/24 06:59:23;;;;;;;32.17;19.95;;;;;;;;;;5117698;28;20209;-54
2021/03/24 07:02:23;;;;;;;31.38;20.05;;;;;;;;;;5035782;28;20538;-52
2021/03/24 07:05:18;;;;;;;35.40;20.05;;;;;;;;;;5117926;28;20225;-59
2021/03/24 07:08:01;;;;;;;36.22;20.95;;;;;;;;;;5117597;28;20265;-55
2021/03/24 07:10:42;;;;;;;35.08;21.58;;;;;;;;;;5117696;28;20189;-50
2021/03/24 07:13:24;;;;;;;39.92;21.77;;;;;;;;;;5118042;28;20212;-49
2021/03/24 07:16:15;;;;;;;30.35;19.80;;;;;;;;;;5118695;28;20241;-55
2021/03/24 07:18:54;;;;;;;33.38;20.90;;;;;;;;;;5118105;28;20201;-56
2021/03/24 07:21:47;;;;;;;34.40;20.33;;;;;;;;;;5116013;28;20189;-60
2021/03/24 07:24:37;;;;;;;35.00;19.27;;;;;;;;;;5117308;28;20215;-52
2021/03/24 07:27:28;;;;;;;32.00;18.95;;;;;;;;;;5101992;28;20428;-50
2021/03/24 07:30:06;;;;;;;34.92;19.27;;;;;;;;;;5117285;28;20211;-55
2021/03/24 07:32:55;;;;;;;29.23;17.08;;;;;;;;;;5116751;28;20265;-55
2021/03/24 07:35:34;;;;;;;40.95;19.33;;;;;;;;;;5117025;28;20196;-49
2021/03/24 07:41:42;;;;;;;31.17;18.00;;;;;;;;;;5114738;28;20228;-53
2021/03/24 07:44:44;;;;;;;32.17;18.77;;;;;;;;;;5096742;28;20201;-53
2021/03/24 07:47:17;;;;;;;28.30;18.45;;;;;;;;;;5110188;28;20313;-52
2021/03/24 07:49:50;;;;;;;23.98;17.67;;;;;;;;;;5117138;28;20201;-58
2021/03/24 07:52:36;;;;;;;29.65;18.17;;;;;;;;;;5117671;28;20170;-55
2021/03/24 07:55:08;;;;;;;35.90;18.98;;;;;;;;;;5116487;28;20185;-55
2021/03/24 07:57:36;;;;;;;35.33;21.85;;;;;;;;;;5116454;28;20181;-56
2021/03/24 08:00:14;;;;;;;32.08;19.10;;;;;;;;;;5116582;28;20208;-56
2021/03/24 08:02:46;;;;;;;29.88;20.23;;;;;;;;;;5116627;28;20499;-58
2021/03/24 08:05:25;;;;;;;30.27;18.85;;;;;;;;;;5116513;28;20189;-56
2021/03/24 08:07:55;;;;;;;36.45;19.50;;;;;;;;;;5115956;28;20185;-52
2021/03/24 08:10:35;;;;;;;38.70;20.02;;;;;;;;;;5115645;28;20192;-53
2021/03/24 08:13:08;;;;;;;36.67;21.52;;;;;;;;;;5098396;28;20193;-54
2021/03/24 08:16:05;;;;;;;32.88;19.48;;;;;;;;;;5097499;28;20212;-53
2021/03/24 08:19:08;;;;;;;34.08;21.15;;;;;;;;;;5024343;28;20184;-51
2021/03/24 08:21:45;;;;;;;33.90;18.35;;;;;;;;;;5126699;28;20196;-55
2021/03/24 08:24:25;;;;;;;31.98;17.85;;;;;;;;;;5126900;28;20248;-58
2021/03/24 08:27:23;;;;;;;32.50;20.10;;;;;;;;;;5116109;28;20240;-51
2021/03/24 08:29:56;;;;;;;31.63;20.33;;;;;;;;;;5095276;28;20448;-56
2021/03/24 08:32:36;;;;;;;33.33;20.42;;;;;;;;;;5105455;28;20459;-53
2021/03/24 08:35:34;;;;;;;35.90;21.37;;;;;;;;;;5115466;28;20185;-57
2021/03/24 08:38:33;;;;;;;36.03;18.75;;;;;;;;;;5111020;28;20470;-57
2021/03/24 08:41:15;;;;;;;34.83;20.43;;;;;;;;;;5116474;28;20197;-54
2021/03/24 08:43:47;;;;;;;34.93;21.00;;;;;;;;;;5116138;28;20451;-51
2021/03/24 08:46:18;;;;;;;32.30;20.30;;;;;;;;;;5114905;28;20462;-55
2021/03/24 08:48:46;;;;;;;32.70;20.47;;;;;;;;;;5114033;28;20489;-51
2021/03/24 08:51:24;;;;;;;40.43;21.13;;;;;;;;;;5114886;28;20741;-53
2021/03/24 08:54:24;;;;;;;35.20;21.33;;;;;;;;;;5114153;28;20466;-53
2021/03/24 08:56:57;;;;;;;41.93;22.67;;;;;;;;;;5099783;28;20483;-55
2021/03/24 08:59:31;;;;;;;39.60;22.07;;;;;;;;;;5116811;28;20467;-55
2021/03/24 09:02:18;;;;;;;37.10;20.47;;;;;;;;;;5118830;28;20472;-52
2021/03/24 09:05:05;;;;;;;34.80;20.30;;;;;;;;;;5119135;28;20438;-57
2021/03/24 09:10:50;;;;;;;33.07;20.67;;;;;;;;;;5100197;28;20447;-47
2021/03/24 09:13:27;;;;;;;35.20;20.17;;;;;;;;;;5119095;28;20474;-55
2021/03/24 09:16:09;;;;;;;44.87;21.80;;;;;;;;;;5119112;28;20466;-55
2021/03/24 09:18:39;;;;;;;30.23;19.80;;;;;;;;;;5086246;28;20455;-56
2021/03/24 09:21:11;;;;;;;32.53;21.20;;;;;;;;;;5118322;28;20443;-53
2021/03/24 09:23:50;;;;;;;35.07;21.43;;;;;;;;;;5117945;28;20436;-54
2021/03/24 09:26:33;;;;;;;33.17;21.20;;;;;;;;;;5118203;28;20462;-56
2021/03/24 09:29:08;;;;;;;33.10;20.50;;;;;;;;;;5118050;28;20430;-54
2021/03/24 09:31:55;;;;;;;35.20;23.43;;;;;;;;;;5119094;28;20447;-56
2021/03/24 09:34:30;;;;;;;32.20;20.23;;;;;;;;;;5118039;28;20508;-55
2021/03/24 09:37:00;;;;;;;38.90;22.13;;;;;;;;;;5118231;28;20446;-55
2021/03/24 09:39:34;;;;;;;35.80;21.80;;;;;;;;;;5117655;28;20446;-53
2021/03/24 09:42:04;;;;;;;38.90;20.90;;;;;;;;;;5117705;28;20447;-55
2021/03/24 09:44:41;;;;;;;41.43;23.20;;;;;;;;;;5117367;28;20459;-55
2021/03/24 09:47:35;;;;;;;38.67;21.40;;;;;;;;;;5117455;28;20451;-53
2021/03/24 09:50:15;;;;;;;38.63;22.20;;;;;;;;;;5070196;28;20951;-50
2021/03/24 09:52:48;;;;;;;48.90;28.37;;;;;;;;;;5117146;28;20439;-51
2021/03/24 09:55:21;;;;;;;41.93;23.80;;;;;;;;;;5116211;28;20474;-50
2021/03/24 10:00:59;;;;;;;33.40;21.90;;;;;;;;;;5112893;28;20422;-53
2021/03/24 10:03:33;;;;;;;41.47;22.77;;;;;;;;;;5098696;28;20486;-54
2021/03/24 10:06:36;;;;;;;37.90;23.57;;;;;;;;;;5097348;28;20535;-51
2021/03/24 10:09:05;;;;;;;42.07;24.73;;;;;;;;;;5119172;28;20513;-55
2021/03/24 10:11:36;;;;;;;41.23;23.27;;;;;;;;;;5116827;28;20697;-54
2021/03/24 10:14:11;;;;;;;43.13;24.53;;;;;;;;;;5117191;28;20481;-56
2021/03/24 10:16:44;;;;;;;44.90;23.93;;;;;;;;;;5120872;28;20578;-57
2021/03/24 10:19:18;;;;;;;38.53;23.13;;;;;;;;;;5119540;28;20443;-55
2021/03/24 10:21:49;;;;;;;40.73;24.20;;;;;;;;;;5116531;28;20523;-51
2021/03/24 10:24:24;;;;;;;45.47;26.13;;;;;;;;;;5117184;28;20428;-56
2021/03/24 10:27:06;;;;;;;43.23;25.93;;;;;;;;;;5116912;28;20430;-52
2021/03/24 10:29:39;;;;;;;46.80;26.30;;;;;;;;;;5122090;28;20445;-53
2021/03/24 10:32:21;;;;;;;45.90;25.23;;;;;;;;;;5117425;28;20460;-53
2021/03/24 10:34:50;;;;;;;46.20;24.73;;;;;;;;;;5116599;28;20620;-55
2021/03/24 10:37:25;;;;;;;41.23;25.77;;;;;;;;;;5442608;22;20489;-55
2021/03/24 10:39:57;;;;;;;37.80;23.33;;;;;;;;;;5055107;28;20461;-58
2021/03/24 10:42:27;;;;;;;43.40;24.97;;;;;;;;;;5056153;28;20419;-55
2021/03/24 10:44:57;;;;;;;41.50;25.50;;;;;;;;;;5055839;28;20454;-58
2021/03/24 10:47:36;;;;;;;39.50;24.57;;;;;;;;;;5055233;28;20468;-53
2021/03/24 10:50:20;;;;;;;50.80;24.87;;;;;;;;;;5056030;28;20487;-56
2021/03/24 10:53:04;;;;;;;45.53;25.70;;;;;;;;;;5062638;28;20538;-53
2021/03/24 10:55:46;;;;;;;43.67;26.07;;;;;;;;;;5083808;28;20502;-51
2021/03/24 10:58:30;;;;;;;41.97;25.90;;;;;;;;;;5074541;28;20473;-51
2021/03/24 11:01:04;;;;;;;47.30;27.00;;;;;;;;;;5087379;28;20451;-53
2021/03/24 11:03:35;;;;;;;49.57;29.13;;;;;;;;;;5079192;28;20429;-54
2021/03/24 11:06:13;;;;;;;51.30;28.87;;;;;;;;;;5075434;28;20484;-54
2021/03/24 11:08:51;;;;;;;46.30;28.17;;;;;;;;;;5062606;28;20457;-56
2021/03/24 11:11:36;;;;;;;47.53;29.23;;;;;;;;;;5056048;28;20438;-52
2021/03/24 11:14:10;;;;;;;50.77;29.77;;;;;;;;;;5076395;28;20488;-48
2021/03/24 11:16:40;;;;;;;53.33;29.30;;;;;;;;;;5055497;28;20525;-54
2021/03/24 11:22:21;;;;;;;52.43;27.20;;;;;;;;;;5083944;28;20424;-56
2021/03/24 11:24:51;;;;;;;46.63;27.50;;;;;;;;;;5061029;28;20469;-54
2021/03/24 11:27:25;;;;;;;44.70;25.53;;;;;;;;;;5057415;28;20442;-57
2021/03/24 11:30:24;;;;;;;49.40;26.50;;;;;;;;;;5055715;28;20441;-62
2021/03/24 11:33:00;;;;;;;47.63;26.30;;;;;;;;;;5054966;28;20466;-48
2021/03/24 11:35:50;;;;;;;44.70;25.57;;;;;;;;;;5073296;28;20460;-52
2021/03/24 11:38:27;;;;;;;48.13;26.73;;;;;;;;;;5076365;28;20484;-55
2021/03/24 11:41:04;;;;;;;42.80;24.93;;;;;;;;;;5085649;28;20469;-54
2021/03/24 11:43:32;;;;;;;51.27;29.00;;;;;;;;;;5076143;28;20529;-53
2021/03/24 11:46:08;;;;;;;38.37;23.33;;;;;;;;;;5074589;28;20438;-56
2021/03/24 11:48:54;;;;;;;46.03;25.83;;;;;;;;;;5074827;28;20429;-57
2021/03/24 11:51:28;;;;;;;47.60;26.63;;;;;;;;;;5075622;28;20466;-52
2021/03/24 11:54:07;;;;;;;39.20;24.07;;;;;;;;;;5086735;28;20471;-54
2021/03/24 11:56:57;;;;;;;48.63;26.80;;;;;;;;;;5094662;28;20448;-53
2021/03/24 11:59:31;;;;;;;51.20;27.53;;;;;;;;;;5013569;28;20475;-53
2021/03/24 12:02:03;;;;;;;48.50;28.27;;;;;;;;;;5015164;28;20489;-52
2021/03/24 12:04:44;;;;;;;50.17;28.13;;;;;;;;;;5015497;28;20443;-55
2021/03/24 12:07:16;;;;;;;43.73;27.60;;;;;;;;;;5007762;28;20451;-53
2021/03/24 12:10:25;;;;;;;45.63;25.50;;;;;;;;;;4996016;28;20448;-56
2021/03/24 12:13:01;;;;;;;44.37;26.10;;;;;;;;;;4996114;28;20448;-52
2021/03/24 12:15:35;;;;;;;44.50;26.30;;;;;;;;;;5005010;28;20443;-53
2021/03/24 12:18:33;;;;;;;55.63;28.17;;;;;;;;;;5014535;28;20482;-54
2021/03/24 12:21:38;;;;;;;43.50;26.27;;;;;;;;;;5004733;28;20460;-53
2021/03/24 12:24:24;;;;;;;42.17;24.97;;;;;;;;;;5001081;28;20539;-53
2021/03/24 12:27:21;;;;;;;41.83;24.93;;;;;;;;;;5010971;28;20452;-54
2021/03/24 12:30:11;;;;;;;44.20;26.33;;;;;;;;;;5001964;28;20453;-54
2021/03/24 12:32:39;;;;;;;48.27;25.90;;;;;;;;;;5005091;28;20443;-60
2021/03/24 12:35:07;;;;;;;48.40;25.47;;;;;;;;;;5015748;28;20487;-51
2021/03/24 12:37:36;;;;;;;47.10;27.20;;;;;;;;;;5015688;28;20471;-47
2021/03/24 12:40:08;;;;;;;42.60;25.50;;;;;;;;;;5014944;28;20462;-53
2021/03/24 12:42:38;;;;;;;38.40;22.70;;;;;;;;;;5016047;28;20511;-51
2021/03/24 12:48:14;;;;;;;40.30;23.20;;;;;;;;;;5001723;28;20432;-51
2021/03/24 12:50:42;;;;;;;40.13;23.60;;;;;;;;;;5076152;28;20685;-48
2021/03/24 12:53:22;;;;;;;39.67;23.33;;;;;;;;;;5074702;28;20492;-52
2021/03/24 12:55:52;;;;;;;40.67;22.27;;;;;;;;;;5076597;28;20437;-56
2021/03/24 12:58:28;;;;;;;42.40;22.10;;;;;;;;;;5068797;28;20446;-56
2021/03/24 13:00:58;;;;;;;37.60;20.57;;;;;;;;;;5056427;28;20460;-51
2021/03/24 13:04:16;;;;;;;34.07;20.80;;;;;;;;;;5068401;28;20469;-53
2021/03/24 13:06:54;;;;;;;34.60;20.60;;;;;;;;;;5066488;28;20450;-53
2021/03/24 13:09:35;;;;;;;38.30;21.60;;;;;;;;;;5067753;28;20504;-55
2021/03/24 13:12:29;;;;;;;34.70;19.60;;;;;;;;;;5059118;28;20720;-53
2021/03/24 13:15:03;;;;;;;43.37;23.70;;;;;;;;;;5075801;28;20492;-53
2021/03/24 13:17:46;;;;;;;33.13;19.50;;;;;;;;;;5062752;28;20449;-53
2021/03/24 13:20:32;;;;;;;35.07;18.50;;;;;;;;;;5063440;28;20437;-53
2021/03/24 13:23:03;;;;;;;28.67;18.43;;;;;;;;;;5075059;28;20457;-54
2021/03/24 13:25:36;;;;;;;43.00;20.60;;;;;;;;;;5074910;28;20480;-58
2021/03/24 13:28:35;;;;;;;40.87;21.63;;;;;;;;;;5076129;28;20476;-54
2021/03/24 13:31:10;;;;;;;30.10;17.77;;;;;;;;;;5071369;28;20464;-59
2021/03/24 13:33:44;;;;;;;31.20;18.70;;;;;;;;;;5095774;28;20491;-51
2021/03/24 13:36:15;;;;;;;32.47;18.57;;;;;;;;;;5081823;28;20523;-59
2021/03/24 13:39:06;;;;;;;31.63;18.03;;;;;;;;;;5083145;28;20451;-52
2021/03/24 13:41:34;;;;;;;33.20;17.90;;;;;;;;;;5075877;28;20564;-59
2021/03/24 13:44:14;;;;;;;31.37;17.83;;;;;;;;;;5082547;28;20453;-59
2021/03/24 13:46:57;;;;;;;32.27;17.20;;;;;;;;;;5092798;28;20471;-57
2021/03/24 13:49:31;;;;;;;31.17;18.67;;;;;;;;;;5098592;28;20472;-53
2021/03/24 13:52:19;;;;;;;26.63;16.60;;;;;;;;;;5086790;28;20454;-54
2021/03/24 13:54:53;;;;;;;28.47;16.87;;;;;;;;;;5119615;28;20494;-54
2021/03/24 13:57:30;;;;;;;36.30;17.43;;;;;;;;;;5091837;28;20480;-51
2021/03/24 14:00:01;;;;;;;30.73;16.93;;;;;;;;;;5082553;28;20483;-58
2021/03/24 14:02:41;;;;;;;28.43;15.77;;;;;;;;;;5084583;28;20463;-55
2021/03/24 14:05:13;;;;;;;40.17;18.00;;;;;;;;;;5082049;28;20492;-56
2021/03/24 14:07:46;;;;;;;34.80;18.10;;;;;;;;;;5110028;28;20455;-57
2021/03/24 14:10:24;;;;;;;29.20;17.10;;;;;;;;;;5119468;28;20461;-49
2021/03/24 14:13:09;;;;;;;30.27;16.67;;;;;;;;;;5101262;28;20442;-53
2021/03/24 14:16:08;;;;;;;32.93;17.77;;;;;;;;;;5099109;28;20583;-56
2021/03/24 14:18:42;;;;;;;28.03;16.10;;;;;;;;;;5098758;28;20467;-57
2021/03/24 14:21:27;;;;;;;28.93;15.07;;;;;;;;;;5098739;28;20495;-53
2021/03/24 14:24:16;;;;;;;33.03;17.00;;;;;;;;;;5100156;28;20459;-55
2021/03/24 14:27:00;;;;;;;28.83;16.30;;;;;;;;;;5095719;28;20449;-54
2021/03/24 14:29:41;;;;;;;31.30;15.50;;;;;;;;;;5098302;28;20459;-55
2021/03/24 14:32:12;;;;;;;34.60;15.73;;;;;;;;;;5097954;28;20458;-54
2021/03/24 14:34:57;;;;;;;29.43;17.03;;;;;;;;;;5094609;28;20473;-56
2021/03/24 14:37:42;;;;;;;26.40;15.57;;;;;;;;;;5077884;28;20425;-51
2021/03/24 14:40:42;;;;;;;29.83;15.30;;;;;;;;;;5078431;28;20448;-54
2021/03/24 14:46:37;;;;;;;23.50;15.13;;;;;;;;;;5078002;28;20456;-62
2021/03/24 14:49:06;;;;;;;32.47;17.37;;;;;;;;;;5078061;28;20448;-56
2021/03/24 14:51:38;;;;;;;30.10;14.43;;;;;;;;;;5084046;28;20469;-59
2021/03/24 14:54:15;;;;;;;27.80;16.03;;;;;;;;;;5116988;28;20471;-47
2021/03/24 14:56:47;;;;;;;28.10;16.40;;;;;;;;;;5105024;28;20459;-53
2021/03/24 14:59:33;;;;;;;31.60;18.40;;;;;;;;;;5097835;28;20448;-49
2021/03/24 15:02:32;;;;;;;29.40;14.73;;;;;;;;;;5080022;28;20482;-47
2021/03/24 15:05:27;;;;;;;20.77;13.43;;;;;;;;;;5072766;28;20448;-58
2021/03/24 15:08:23;;;;;;;30.23;15.57;;;;;;;;;;5094725;28;20498;-50
2021/03/24 15:11:11;;;;;;;31.43;15.83;;;;;;;;;;5080673;28;20512;-57
2021/03/24 15:13:52;;;;;;;23.67;13.97;;;;;;;;;;5098612;28;20510;-47
2021/03/24 15:16:23;;;;;;;28.60;15.47;;;;;;;;;;5115633;28;20470;-50
2021/03/24 15:19:09;;;;;;;29.50;14.60;;;;;;;;;;5118189;28;20490;-50
2021/03/24 15:21:46;;;;;;;30.23;14.73;;;;;;;;;;5118219;28;20454;-55
2021/03/24 15:24:20;;;;;;;28.37;13.87;;;;;;;;;;5118866;28;20510;-49
2021/03/24 15:27:25;;;;;;;26.10;14.47;;;;;;;;;;5118739;28;20446;-56
2021/03/24 15:29:58;;;;;;;22.93;13.93;;;;;;;;;;5118363;28;20435;-48
2021/03/24 15:32:50;;;;;;;29.70;15.53;;;;;;;;;;5097922;28;20448;-50
2021/03/24 15:35:49;;;;;;;26.43;13.90;;;;;;;;;;5097316;28;20488;-58
2021/03/24 15:38:35;;;;;;;34.63;13.83;;;;;;;;;;5115844;28;20522;-58
2021/03/24 15:41:15;;;;;;;25.77;16.20;;;;;;;;;;5118209;28;20439;-50
2021/03/24 15:43:46;;;;;;;32.13;14.67;;;;;;;;;;5118598;28;20482;-51